Los Ranchos de Albuquerque, New Mexico
Current Conditions -  °F | °C
As of 10:55 PM on Wednesday 22 Oct 2014 (Local Time) from KAEG Reporting Station
Clear Clear  
Wind Chill: 53°   Ceiling: Unl
Heat Index: 53°   Visibility: 10mi
Dew Point: 44°   Wind: 9mph
Humidity: 71%   Direction: 240°WSW
Pressure: 30.21"   Gusts: NA
Location:  35.1989°N, 106.703°W
Report Text: KAEG 230455Z AUTO 24008KT 10SM CLR 12/07 A3021 RMK AO2 T01160065
Loading
Personal Weather Stations






























Interactive Weather Map
Tropical Storm Tracking
New forecast layout! Learn more

10-Day Weather Forecast

Advertisements
Track Severe Weather on mobile